This is the latest recevied weather packets stored in our database for station/object DK7LH-6. If no packets are shown the sender has not sent any weather packets the latest 1 day(s).
| Time | Temp. | Humidity | Pressure | Rain* | Wind** | Luminosity | Snow |
|---|---|---|---|---|---|---|---|
| 1778061620 | 10° C | 75% | 1008 hPa | 0 mm | - | 134 W/m² | - |
| 1778059822 | 10.56° C | 72% | 1007.9 hPa | 0 mm | - | 138 W/m² | - |
| 1778052630 | 10° C | 75% | 1007 hPa | 0 mm | - | 75 W/m² | - |
| 1778049934 | 9.44° C | 80% | 1006.9 hPa | 0 mm | - | 75 W/m² | - |
| 1778049066 | 9.44° C | 81% | 1006.8 hPa | 0 mm | - | 50 W/m² | - |
| 1778047269 | 8.89° C | 83% | 1006.9 hPa | 0 mm | - | 34 W/m² | - |
| 1778046338 | 8.89° C | 83% | 1006.9 hPa | 0 mm | - | 24 W/m² | - |
| 1778042741 | 9.44° C | 83% | 1006.9 hPa | 0 mm | - | 6 W/m² | - |
| 1778041873 | 9.44° C | 81% | 1006.9 hPa | 0 mm | - | 4 W/m² | - |
| 1778040943 | 9.44° C | 79% | 1007 hPa | 0 mm | - | 2 W/m² | - |
| 1778040045 | 9.44° C | 77% | 1007 hPa | 0 mm | - | 0 W/m² | - |
| 1778039176 | 9.44° C | 78% | 1006.8 hPa | 0 mm | - | 0 W/m² | - |
| 1778038246 | 9.44° C | 80% | 1006.9 hPa | 0 mm | - | 0 W/m² | - |
| 1778036449 | 10° C | 81% | 1007.2 hPa | 0 mm | - | 0 W/m² | - |
| 1778035519 | 10° C | 82% | 1007.4 hPa | 0 mm | - | 0 W/m² | - |
| 1778034650 | 10° C | 82% | 1007.3 hPa | 0 mm | - | 0 W/m² | - |
| 1778032853 | 10° C | 82% | 1007.5 hPa | 0 mm | - | 0 W/m² | - |
| 1778031923 | 10° C | 82% | 1007.6 hPa | 0 mm | - | 0 W/m² | - |
| 1778031054 | 10° C | 82% | 1007.6 hPa | 0 mm | - | 0 W/m² | - |
| 1778029257 | 10.56° C | 82% | 1007.7 hPa | 0 mm | - | 0 W/m² | - |
| 1778028327 | 10.56° C | 82% | 1007.7 hPa | 0 mm | - | 0 W/m² | - |
| 1778027458 | 10.56° C | 82% | 1007.9 hPa | 0 mm | - | 0 W/m² | - |
| 1778011277 | 11.67° C | 89% | 1008.8 hPa | 0 mm | - | 0 W/m² | - |
| 1778010347 | 11.67° C | 89% | 1008.8 hPa | 0 mm | - | 0 W/m² | - |
* Rain latest hour (hover to see other rain measurements)
** Current wind speed in m/s (hover to see current wind gust speed)